Time;durP1;ratioP1;P1;durP2;ratioP2;P2;SDS_P1;SDS_P2;PMS_P1;PMS_P2;Temp;Humidity;BMP_temperature;BMP_pressure;BME280_temperature;BME280_humidity;BME280_pressure;Samples;Min_cycle;Max_cycle;Signal;HPM_P1;HPM_P2
2022/03/29 00:00:12;;;;;;;70.03;33.63;;;;;;;;;;5062110;28;20044;-70
2022/03/29 00:02:37;;;;;;;69.50;33.60;;;;;;;;;;5062430;28;20082;-70
2022/03/29 00:05:04;;;;;;;64.83;31.20;;;;;;;;;;5059739;28;20419;-71
2022/03/29 00:07:30;;;;;;;72.73;32.97;;;;;;;;;;5052729;28;20024;-70
2022/03/29 00:09:55;;;;;;;71.27;32.73;;;;;;;;;;5062315;28;20411;-70
2022/03/29 00:12:20;;;;;;;70.30;32.47;;;;;;;;;;5062007;28;20021;-70
2022/03/29 00:14:45;;;;;;;70.03;32.10;;;;;;;;;;5043904;28;20528;-70
2022/03/29 00:17:11;;;;;;;57.80;29.03;;;;;;;;;;5061868;28;20043;-70
2022/03/29 00:19:36;;;;;;;41.13;20.67;;;;;;;;;;5061814;28;20028;-70
2022/03/29 00:22:01;;;;;;;34.77;18.93;;;;;;;;;;5061914;28;20116;-70
2022/03/29 00:24:26;;;;;;;36.60;19.67;;;;;;;;;;5061643;28;20071;-70
2022/03/29 00:26:52;;;;;;;32.53;18.40;;;;;;;;;;5061333;28;20044;-70
2022/03/29 00:29:17;;;;;;;37.33;18.70;;;;;;;;;;5061860;28;20104;-70
2022/03/29 00:31:42;;;;;;;44.30;20.53;;;;;;;;;;5061821;28;20059;-70
2022/03/29 00:34:07;;;;;;;52.37;24.00;;;;;;;;;;5061335;28;20078;-70
2022/03/29 00:36:33;;;;;;;52.10;24.83;;;;;;;;;;5064213;28;20082;-70
2022/03/29 00:38:58;;;;;;;51.23;24.90;;;;;;;;;;5061382;28;20028;-70
2022/03/29 00:41:23;;;;;;;57.67;27.23;;;;;;;;;;5061810;28;20067;-70
2022/03/29 00:43:48;;;;;;;61.57;28.00;;;;;;;;;;5060995;28;20028;-70
2022/03/29 00:46:14;;;;;;;57.00;27.23;;;;;;;;;;5061235;28;20524;-70
2022/03/29 00:48:39;;;;;;;59.57;27.93;;;;;;;;;;5061808;28;20090;-70
2022/03/29 00:51:04;;;;;;;52.83;25.00;;;;;;;;;;5061568;28;20032;-70
2022/03/29 00:53:30;;;;;;;60.10;26.47;;;;;;;;;;5064317;28;20036;-70
2022/03/29 00:55:58;;;;;;;52.77;25.07;;;;;;;;;;5061297;28;20032;-70
2022/03/29 00:58:23;;;;;;;56.50;26.57;;;;;;;;;;5059830;28;20066;-70
2022/03/29 01:00:48;;;;;;;55.20;25.70;;;;;;;;;;5061489;28;20100;-70
2022/03/29 01:03:15;;;;;;;51.77;25.83;;;;;;;;;;5067616;22;20032;-69
2022/03/29 01:05:41;;;;;;;56.77;26.03;;;;;;;;;;5075175;28;20228;-69
2022/03/29 01:08:06;;;;;;;57.07;26.63;;;;;;;;;;5080291;28;20031;-69
2022/03/29 01:10:31;;;;;;;58.83;27.00;;;;;;;;;;5079644;28;20047;-69
2022/03/29 01:12:57;;;;;;;56.57;27.33;;;;;;;;;;5079192;28;20024;-69
2022/03/29 01:15:23;;;;;;;48.23;24.57;;;;;;;;;;5079180;28;20024;-69
2022/03/29 01:17:49;;;;;;;43.70;22.77;;;;;;;;;;5078841;28;20028;-69
2022/03/29 01:20:18;;;;;;;42.47;22.27;;;;;;;;;;5084898;28;20027;-69
2022/03/29 01:22:47;;;;;;;45.57;21.37;;;;;;;;;;5081279;28;20016;-69
2022/03/29 01:25:17;;;;;;;42.43;21.03;;;;;;;;;;5078234;28;20020;-69
2022/03/29 01:27:43;;;;;;;40.17;20.37;;;;;;;;;;5079057;28;20272;-69
2022/03/29 01:30:09;;;;;;;40.37;20.90;;;;;;;;;;5078436;28;20055;-69
2022/03/29 01:32:35;;;;;;;37.83;19.77;;;;;;;;;;5078930;28;20185;-69
2022/03/29 01:35:01;;;;;;;38.30;19.03;;;;;;;;;;5078519;28;20028;-69
2022/03/29 01:37:27;;;;;;;33.37;17.77;;;;;;;;;;5079295;28;20292;-69
2022/03/29 01:39:53;;;;;;;37.03;19.40;;;;;;;;;;5078803;28;20423;-68
2022/03/29 01:42:18;;;;;;;34.17;19.07;;;;;;;;;;5078055;28;20304;-68
2022/03/29 01:44:44;;;;;;;34.43;19.50;;;;;;;;;;5078448;28;20028;-68
2022/03/29 01:47:09;;;;;;;40.03;18.80;;;;;;;;;;5078675;28;20062;-68
2022/03/29 01:49:34;;;;;;;36.93;20.00;;;;;;;;;;5078338;28;20036;-68
2022/03/29 01:52:00;;;;;;;39.20;20.73;;;;;;;;;;5078547;28;20039;-68
2022/03/29 01:54:26;;;;;;;37.50;19.83;;;;;;;;;;5078490;28;20460;-68
2022/03/29 01:56:51;;;;;;;40.20;20.33;;;;;;;;;;5078553;28;20020;-68
2022/03/29 01:59:16;;;;;;;40.30;20.07;;;;;;;;;;5078686;28;20256;-68
2022/03/29 02:01:42;;;;;;;39.37;21.93;;;;;;;;;;5078579;28;20032;-68
2022/03/29 02:04:08;;;;;;;35.23;20.90;;;;;;;;;;5078202;28;20139;-68
2022/03/29 02:06:33;;;;;;;42.73;20.97;;;;;;;;;;5078253;28;20085;-68
2022/03/29 02:08:59;;;;;;;38.67;19.23;;;;;;;;;;5078200;28;20510;-68
2022/03/29 02:11:24;;;;;;;38.10;20.40;;;;;;;;;;5078211;28;20028;-68
2022/03/29 02:13:49;;;;;;;44.77;21.53;;;;;;;;;;5081750;28;20015;-68
2022/03/29 02:16:14;;;;;;;39.67;20.93;;;;;;;;;;5082790;28;20027;-68
2022/03/29 02:18:40;;;;;;;36.53;19.83;;;;;;;;;;5082784;28;20034;-68
2022/03/29 02:21:05;;;;;;;36.73;20.30;;;;;;;;;;5082113;28;20107;-68
2022/03/29 02:23:30;;;;;;;36.57;19.30;;;;;;;;;;5083065;28;20024;-68
2022/03/29 02:25:55;;;;;;;35.30;19.17;;;;;;;;;;5082836;28;20119;-68
2022/03/29 02:28:21;;;;;;;35.83;17.50;;;;;;;;;;5082948;28;20304;-68
2022/03/29 02:30:46;;;;;;;39.20;19.73;;;;;;;;;;5082626;28;20708;-70
2022/03/29 02:33:11;;;;;;;37.60;19.33;;;;;;;;;;5082656;28;20008;-69
2022/03/29 02:35:36;;;;;;;35.50;18.53;;;;;;;;;;5084752;28;20047;-69
2022/03/29 02:38:02;;;;;;;37.40;18.90;;;;;;;;;;5082410;28;20021;-69
2022/03/29 02:40:27;;;;;;;37.33;18.97;;;;;;;;;;5064255;28;20020;-68
2022/03/29 02:42:53;;;;;;;43.10;19.17;;;;;;;;;;5081630;28;20376;-68
2022/03/29 02:45:21;;;;;;;40.70;19.90;;;;;;;;;;5081283;28;20032;-68
2022/03/29 02:47:47;;;;;;;36.87;18.97;;;;;;;;;;5084127;28;20035;-68
2022/03/29 02:50:12;;;;;;;39.87;19.27;;;;;;;;;;5081203;28;20257;-68
2022/03/29 02:52:50;;;;;;;41.10;20.27;;;;;;;;;;5082312;28;20040;-68
2022/03/29 02:55:16;;;;;;;38.40;19.47;;;;;;;;;;5082047;28;20012;-68
2022/03/29 02:57:42;;;;;;;39.00;19.20;;;;;;;;;;5082296;28;20016;-68
2022/03/29 03:00:09;;;;;;;40.03;19.87;;;;;;;;;;5081826;28;20024;-68
2022/03/29 03:02:34;;;;;;;37.67;20.00;;;;;;;;;;5082355;28;20618;-68
2022/03/29 03:05:00;;;;;;;43.50;20.50;;;;;;;;;;5081718;28;20036;-68
2022/03/29 03:07:26;;;;;;;48.87;20.57;;;;;;;;;;5082426;28;20040;-68
2022/03/29 03:09:51;;;;;;;41.33;20.40;;;;;;;;;;5081212;28;20024;-68
2022/03/29 03:12:16;;;;;;;49.50;21.23;;;;;;;;;;5081375;28;20018;-68
2022/03/29 03:14:43;;;;;;;57.20;25.33;;;;;;;;;;5081821;28;20052;-68
2022/03/29 03:17:08;;;;;;;45.53;22.83;;;;;;;;;;5084428;28;20065;-68
2022/03/29 03:19:33;;;;;;;51.70;24.30;;;;;;;;;;5081563;28;20656;-68
2022/03/29 03:21:58;;;;;;;46.50;23.03;;;;;;;;;;5081774;28;20244;-68
2022/03/29 03:24:24;;;;;;;48.77;22.97;;;;;;;;;;5081184;28;20016;-68
2022/03/29 03:26:49;;;;;;;45.57;21.00;;;;;;;;;;5081466;28;20332;-68
2022/03/29 03:29:14;;;;;;;43.57;21.37;;;;;;;;;;5081406;28;20032;-68
2022/03/29 03:31:39;;;;;;;41.70;20.00;;;;;;;;;;5081252;28;20036;-68
2022/03/29 03:34:04;;;;;;;45.60;21.47;;;;;;;;;;5080492;28;20054;-68
2022/03/29 03:36:30;;;;;;;40.10;19.70;;;;;;;;;;5080903;28;20086;-68
2022/03/29 03:38:55;;;;;;;41.33;20.50;;;;;;;;;;5081187;28;20096;-68
2022/03/29 03:41:20;;;;;;;42.70;20.07;;;;;;;;;;5080916;28;20076;-68
2022/03/29 03:43:45;;;;;;;42.03;20.20;;;;;;;;;;5081585;28;20023;-68
2022/03/29 03:46:11;;;;;;;40.53;19.13;;;;;;;;;;5080146;28;20098;-68
2022/03/29 03:48:36;;;;;;;41.77;20.23;;;;;;;;;;5080315;28;20111;-69
2022/03/29 03:51:01;;;;;;;44.63;19.83;;;;;;;;;;5080369;28;20164;-68
2022/03/29 03:53:27;;;;;;;43.80;20.17;;;;;;;;;;5081121;28;20023;-68
2022/03/29 03:55:52;;;;;;;42.03;20.33;;;;;;;;;;5081111;28;20447;-68
2022/03/29 03:58:17;;;;;;;44.50;20.67;;;;;;;;;;5081258;28;20059;-68
2022/03/29 04:00:42;;;;;;;50.30;21.07;;;;;;;;;;5080744;28;20086;-68
2022/03/29 04:03:09;;;;;;;41.73;19.87;;;;;;;;;;5081830;28;20031;-69
2022/03/29 04:05:34;;;;;;;39.63;20.00;;;;;;;;;;5101194;28;20051;-68
2022/03/29 04:07:59;;;;;;;41.63;19.63;;;;;;;;;;5101280;28;20054;-68
2022/03/29 04:10:26;;;;;;;50.37;20.23;;;;;;;;;;5100807;28;20031;-68
2022/03/29 04:12:51;;;;;;;44.63;19.83;;;;;;;;;;5101489;28;20089;-68
2022/03/29 04:15:16;;;;;;;45.10;20.90;;;;;;;;;;5100327;28;20035;-68
2022/03/29 04:17:42;;;;;;;51.73;20.80;;;;;;;;;;5101265;28;20415;-68
2022/03/29 04:20:07;;;;;;;41.33;20.27;;;;;;;;;;5100957;28;20156;-68
2022/03/29 04:22:32;;;;;;;42.30;20.17;;;;;;;;;;5101063;28;20484;-68
2022/03/29 04:24:58;;;;;;;39.17;20.30;;;;;;;;;;5100360;28;20088;-68
2022/03/29 04:27:23;;;;;;;43.67;20.33;;;;;;;;;;5100749;28;20026;-68
2022/03/29 04:29:48;;;;;;;40.57;20.90;;;;;;;;;;5101100;28;20026;-68
2022/03/29 04:32:14;;;;;;;40.67;20.00;;;;;;;;;;5100888;28;20028;-68
2022/03/29 04:34:40;;;;;;;42.50;20.70;;;;;;;;;;5100237;28;20442;-68
2022/03/29 04:37:05;;;;;;;44.23;19.53;;;;;;;;;;5099576;28;20110;-68
2022/03/29 04:39:31;;;;;;;45.67;19.40;;;;;;;;;;5103283;27;20644;-68
2022/03/29 04:41:57;;;;;;;43.70;20.03;;;;;;;;;;5100062;28;20109;-68
2022/03/29 04:44:22;;;;;;;42.23;20.93;;;;;;;;;;5100285;28;20034;-68
2022/03/29 04:46:47;;;;;;;39.90;20.30;;;;;;;;;;5100559;28;20036;-68
2022/03/29 04:49:12;;;;;;;41.67;20.77;;;;;;;;;;5100415;28;20027;-68
2022/03/29 04:51:38;;;;;;;39.30;20.03;;;;;;;;;;5099961;28;20497;-68
2022/03/29 04:54:03;;;;;;;39.90;19.80;;;;;;;;;;5103027;27;20050;-68
2022/03/29 04:56:29;;;;;;;46.93;21.30;;;;;;;;;;5098465;28;20106;-69
2022/03/29 04:58:56;;;;;;;38.93;19.87;;;;;;;;;;5087707;28;20028;-69
2022/03/29 05:01:22;;;;;;;39.47;20.13;;;;;;;;;;5099344;28;20280;-69
2022/03/29 05:03:47;;;;;;;41.87;20.77;;;;;;;;;;5100180;28;20180;-69
2022/03/29 05:06:12;;;;;;;45.17;20.63;;;;;;;;;;5099498;28;20037;-68
2022/03/29 05:08:37;;;;;;;41.60;21.13;;;;;;;;;;5099882;28;20102;-68
2022/03/29 05:11:03;;;;;;;45.37;21.60;;;;;;;;;;5099479;28;20059;-68
2022/03/29 05:13:28;;;;;;;44.50;20.63;;;;;;;;;;5099085;28;20056;-68
2022/03/29 05:15:54;;;;;;;48.47;21.47;;;;;;;;;;5098087;28;20026;-68
2022/03/29 05:18:19;;;;;;;41.17;20.33;;;;;;;;;;5081383;28;20079;-68
2022/03/29 05:20:44;;;;;;;42.17;20.27;;;;;;;;;;5102101;28;20041;-68
2022/03/29 05:23:10;;;;;;;40.77;20.63;;;;;;;;;;5099204;28;20510;-68
2022/03/29 05:25:36;;;;;;;46.57;21.17;;;;;;;;;;5098309;28;20465;-68
2022/03/29 05:28:01;;;;;;;45.00;21.20;;;;;;;;;;5098768;28;20240;-68
2022/03/29 05:30:27;;;;;;;42.77;20.90;;;;;;;;;;5099176;28;20088;-68
2022/03/29 05:32:57;;;;;;;49.17;22.13;;;;;;;;;;5097819;28;20375;-68
2022/03/29 05:35:25;;;;;;;49.83;21.47;;;;;;;;;;5098688;28;20136;-68
2022/03/29 05:37:50;;;;;;;49.60;21.83;;;;;;;;;;5099168;28;20073;-68
2022/03/29 05:40:16;;;;;;;43.17;21.77;;;;;;;;;;5098627;28;20383;-68
2022/03/29 05:42:42;;;;;;;44.80;22.50;;;;;;;;;;5098483;28;20433;-68
2022/03/29 05:45:08;;;;;;;44.93;22.43;;;;;;;;;;5098162;28;20280;-68
2022/03/29 05:50:17;;;;;;;42.20;21.77;;;;;;;;;;5100164;28;20030;-68
2022/03/29 05:52:42;;;;;;;49.63;22.57;;;;;;;;;;5102602;28;20426;-68
2022/03/29 05:55:08;;;;;;;47.77;21.30;;;;;;;;;;5102161;28;20023;-67
2022/03/29 05:57:33;;;;;;;42.17;20.80;;;;;;;;;;5101597;28;20024;-67
2022/03/29 05:59:58;;;;;;;43.33;21.10;;;;;;;;;;5102479;28;20081;-68
2022/03/29 06:02:24;;;;;;;49.73;22.37;;;;;;;;;;5102237;28;20063;-68
2022/03/29 06:04:50;;;;;;;44.10;21.40;;;;;;;;;;5102349;28;20379;-68
2022/03/29 06:07:15;;;;;;;43.87;22.37;;;;;;;;;;5102577;28;20107;-68
2022/03/29 06:09:40;;;;;;;43.93;19.97;;;;;;;;;;5103517;28;20534;-69
2022/03/29 06:12:06;;;;;;;39.73;20.37;;;;;;;;;;5103014;28;20403;-69
2022/03/29 06:14:31;;;;;;;39.87;20.87;;;;;;;;;;5102988;28;20574;-69
2022/03/29 06:16:57;;;;;;;44.77;21.43;;;;;;;;;;5103111;28;20016;-69
2022/03/29 06:19:22;;;;;;;39.27;19.93;;;;;;;;;;5103181;28;20185;-69
2022/03/29 06:21:47;;;;;;;39.57;19.43;;;;;;;;;;5103517;28;20023;-69
2022/03/29 06:24:13;;;;;;;44.70;20.37;;;;;;;;;;5103248;28;20020;-69
2022/03/29 06:26:41;;;;;;;44.77;20.93;;;;;;;;;;5102929;28;20177;-69
2022/03/29 06:29:07;;;;;;;41.93;20.13;;;;;;;;;;5103257;28;20496;-69
2022/03/29 06:31:33;;;;;;;41.57;19.67;;;;;;;;;;5102805;28;20501;-69
2022/03/29 06:33:58;;;;;;;40.10;19.97;;;;;;;;;;5103287;28;20019;-69
2022/03/29 06:36:24;;;;;;;49.10;21.07;;;;;;;;;;5102743;28;20024;-69
2022/03/29 06:38:49;;;;;;;41.77;19.93;;;;;;;;;;5103146;28;20088;-69
2022/03/29 06:41:15;;;;;;;42.57;20.83;;;;;;;;;;5102638;28;20038;-69
2022/03/29 06:43:40;;;;;;;39.10;20.23;;;;;;;;;;5105753;27;20098;-69
2022/03/29 06:46:08;;;;;;;43.63;20.83;;;;;;;;;;5102737;28;20062;-69
2022/03/29 06:48:33;;;;;;;47.67;21.03;;;;;;;;;;5103200;28;20028;-69
2022/03/29 06:50:59;;;;;;;42.93;20.73;;;;;;;;;;5102191;28;20030;-69
2022/03/29 06:53:24;;;;;;;40.73;18.60;;;;;;;;;;5103124;28;20015;-69
2022/03/29 06:55:51;;;;;;;42.30;20.17;;;;;;;;;;5102860;28;20032;-69
2022/03/29 06:58:17;;;;;;;42.97;20.50;;;;;;;;;;5102554;28;20016;-69
2022/03/29 07:00:42;;;;;;;37.77;19.47;;;;;;;;;;5108656;27;20122;-69
2022/03/29 07:03:07;;;;;;;40.13;20.03;;;;;;;;;;5101665;27;20057;-69
2022/03/29 07:05:36;;;;;;;45.73;19.87;;;;;;;;;;5096410;28;20039;-69
2022/03/29 07:08:01;;;;;;;43.60;19.33;;;;;;;;;;5102077;28;20602;-69
2022/03/29 07:13:10;;;;;;;44.60;19.50;;;;;;;;;;5100171;28;20100;-69
2022/03/29 07:15:35;;;;;;;41.97;19.53;;;;;;;;;;5099904;28;20102;-69
2022/03/29 07:18:00;;;;;;;42.20;19.73;;;;;;;;;;5099393;28;20256;-69
2022/03/29 07:20:25;;;;;;;39.20;20.07;;;;;;;;;;5101697;28;20031;-69
2022/03/29 07:22:52;;;;;;;41.90;19.80;;;;;;;;;;5104091;27;20071;-69
2022/03/29 07:25:20;;;;;;;40.07;19.77;;;;;;;;;;5102703;27;20142;-69
2022/03/29 07:27:47;;;;;;;41.87;19.57;;;;;;;;;;5101877;28;20020;-69
2022/03/29 07:30:13;;;;;;;40.10;20.53;;;;;;;;;;5101302;28;20034;-69
2022/03/29 07:32:47;;;;;;;43.70;19.63;;;;;;;;;;5101314;28;20027;-69
2022/03/29 07:35:14;;;;;;;38.43;20.73;;;;;;;;;;5088966;28;20027;-69
2022/03/29 07:37:39;;;;;;;42.37;19.53;;;;;;;;;;5101416;28;20022;-69
2022/03/29 07:40:05;;;;;;;49.30;20.87;;;;;;;;;;5101788;28;20559;-69
2022/03/29 07:42:32;;;;;;;44.10;20.37;;;;;;;;;;5102026;28;20267;-69
2022/03/29 07:44:57;;;;;;;39.50;19.60;;;;;;;;;;5100843;28;20024;-69
2022/03/29 07:47:22;;;;;;;47.57;20.47;;;;;;;;;;5100992;28;20082;-69
2022/03/29 07:49:48;;;;;;;52.63;21.93;;;;;;;;;;5100656;28;20407;-69
2022/03/29 07:52:13;;;;;;;41.97;20.40;;;;;;;;;;5100074;28;20050;-69
2022/03/29 07:54:39;;;;;;;39.17;19.93;;;;;;;;;;5101198;28;20035;-69
2022/03/29 07:57:08;;;;;;;40.87;19.63;;;;;;;;;;5100404;28;20129;-69
2022/03/29 07:59:33;;;;;;;42.70;20.63;;;;;;;;;;5100193;28;20020;-69
2022/03/29 08:01:58;;;;;;;46.47;20.17;;;;;;;;;;5100537;28;20039;-69
2022/03/29 08:04:24;;;;;;;41.87;19.97;;;;;;;;;;5100542;28;20051;-69
2022/03/29 08:06:49;;;;;;;43.53;20.13;;;;;;;;;;5098358;28;20023;-69
2022/03/29 08:09:15;;;;;;;38.03;18.70;;;;;;;;;;5100478;28;20047;-69
2022/03/29 08:11:41;;;;;;;35.03;18.47;;;;;;;;;;5100801;28;20027;-69
2022/03/29 08:14:06;;;;;;;37.20;17.90;;;;;;;;;;5101142;28;20015;-69
2022/03/29 08:16:33;;;;;;;35.87;18.67;;;;;;;;;;5100262;28;20023;-69
2022/03/29 08:18:59;;;;;;;39.43;18.23;;;;;;;;;;5101221;28;20145;-69
2022/03/29 08:24:09;;;;;;;42.30;19.33;;;;;;;;;;5100926;28;20076;-69
2022/03/29 08:26:34;;;;;;;36.63;18.80;;;;;;;;;;5100093;28;20149;-69
2022/03/29 08:29:00;;;;;;;35.73;18.13;;;;;;;;;;5100220;28;20028;-69
2022/03/29 08:31:25;;;;;;;40.23;18.17;;;;;;;;;;5100027;28;20026;-69
2022/03/29 08:33:50;;;;;;;36.07;18.87;;;;;;;;;;5100745;28;20102;-69
2022/03/29 08:36:16;;;;;;;42.97;18.97;;;;;;;;;;5099736;28;20101;-69
2022/03/29 08:38:41;;;;;;;40.57;18.97;;;;;;;;;;5098882;27;20302;-69
2022/03/29 08:41:07;;;;;;;41.80;17.83;;;;;;;;;;5100470;28;20064;-69
2022/03/29 08:43:32;;;;;;;42.17;18.50;;;;;;;;;;5099649;28;20255;-69
2022/03/29 08:45:58;;;;;;;40.30;18.70;;;;;;;;;;5099523;28;21139;-69
2022/03/29 08:48:24;;;;;;;36.97;18.60;;;;;;;;;;5099514;28;20582;-69
2022/03/29 08:50:51;;;;;;;39.43;19.10;;;;;;;;;;5099094;28;20019;-69
2022/03/29 08:53:16;;;;;;;36.93;19.60;;;;;;;;;;5099197;28;20077;-69
2022/03/29 08:55:44;;;;;;;41.00;20.23;;;;;;;;;;5098009;28;20015;-69
2022/03/29 08:58:09;;;;;;;38.53;19.67;;;;;;;;;;5099929;28;20020;-69
2022/03/29 09:00:35;;;;;;;38.23;17.67;;;;;;;;;;5099518;28;20027;-69
2022/03/29 09:03:00;;;;;;;39.30;18.07;;;;;;;;;;5101735;27;20022;-69
2022/03/29 09:05:30;;;;;;;35.17;17.40;;;;;;;;;;5099033;28;20316;-69
2022/03/29 09:07:57;;;;;;;36.43;18.27;;;;;;;;;;5098835;28;20016;-69
2022/03/29 09:10:37;;;;;;;38.40;18.37;;;;;;;;;;5098870;28;20023;-69
2022/03/29 09:13:20;;;;;;;38.73;18.67;;;;;;;;;;5096848;28;20025;-69
2022/03/29 09:15:47;;;;;;;37.27;18.43;;;;;;;;;;5097783;28;20030;-69
2022/03/29 09:18:28;;;;;;;34.17;17.57;;;;;;;;;;5097348;28;20349;-72
2022/03/29 09:21:08;;;;;;;39.63;17.77;;;;;;;;;;5099143;28;20403;-68
2022/03/29 09:23:34;;;;;;;33.70;18.20;;;;;;;;;;5093404;28;20107;-69
2022/03/29 09:26:00;;;;;;;38.80;17.47;;;;;;;;;;5082184;28;20584;-68
2022/03/29 09:28:31;;;;;;;31.93;17.23;;;;;;;;;;5088109;28;20027;-69
2022/03/29 09:30:57;;;;;;;;;;;;;;;;;;5096327;28;20062;-69
2022/03/29 09:33:30;;;;;;;32.23;16.50;;;;;;;;;;5100443;28;19908;-69
2022/03/29 09:35:57;;;;;;;35.08;17.25;;;;;;;;;;5098882;28;20019;-69
2022/03/29 09:38:26;;;;;;;31.92;16.45;;;;;;;;;;5096451;28;20492;-69
2022/03/29 09:40:52;;;;;;;35.50;17.33;;;;;;;;;;5097446;28;20027;-69
2022/03/29 09:43:20;;;;;;;32.45;15.73;;;;;;;;;;5098769;28;20031;-69
2022/03/29 09:45:47;;;;;;;28.88;15.15;;;;;;;;;;5097202;28;20084;-69
2022/03/29 09:48:24;;;;;;;29.83;16.10;;;;;;;;;;5099299;28;20041;-69
2022/03/29 09:50:56;;;;;;;29.95;15.65;;;;;;;;;;5097762;28;20118;-69
2022/03/29 09:53:34;;;;;;;33.20;16.58;;;;;;;;;;5097519;28;20047;-68
2022/03/29 09:55:59;;;;;;;31.88;16.25;;;;;;;;;;5096887;28;20026;-68
2022/03/29 09:58:24;;;;;;;36.03;16.07;;;;;;;;;;5095369;28;20012;-68
2022/03/29 10:00:50;;;;;;;35.10;15.57;;;;;;;;;;5096882;28;20027;-68
2022/03/29 10:03:17;;;;;;;32.33;16.77;;;;;;;;;;5092032;28;20023;-69
2022/03/29 10:05:42;;;;;;;31.53;16.47;;;;;;;;;;5098461;28;20035;-69
2022/03/29 10:10:53;;;;;;;32.17;16.15;;;;;;;;;;5091695;28;20070;-69
2022/03/29 10:13:23;;;;;;;30.15;16.58;;;;;;;;;;5099224;28;20043;-69
2022/03/29 10:15:48;;;;;;;34.33;16.03;;;;;;;;;;5098430;28;20023;-69
2022/03/29 10:18:14;;;;;;;26.63;14.77;;;;;;;;;;5099205;28;20468;-68
2022/03/29 10:20:40;;;;;;;31.20;16.57;;;;;;;;;;5098059;28;20031;-69
2022/03/29 10:23:06;;;;;;;32.37;15.87;;;;;;;;;;5096888;28;20039;-69
2022/03/29 10:25:32;;;;;;;30.50;16.37;;;;;;;;;;5098406;28;20084;-69
2022/03/29 10:27:58;;;;;;;51.22;16.90;;;;;;;;;;5097602;28;20132;-69
2022/03/29 10:30:31;;;;;;;30.92;16.33;;;;;;;;;;5098842;28;20032;-69
2022/03/29 10:33:14;;;;;;;30.90;14.80;;;;;;;;;;5098558;28;20228;-69
2022/03/29 10:35:59;;;;;;;27.47;14.83;;;;;;;;;;5092902;28;20035;-69
2022/03/29 10:38:43;;;;;;;32.85;15.65;;;;;;;;;;5100703;28;20016;-69
2022/03/29 10:41:27;;;;;;;31.33;15.27;;;;;;;;;;5101903;28;20027;-69
2022/03/29 10:43:52;;;;;;;29.70;14.90;;;;;;;;;;5102867;27;20082;-69
2022/03/29 10:46:25;;;;;;;27.98;14.95;;;;;;;;;;5101374;28;20058;-69
2022/03/29 10:49:10;;;;;;;27.77;14.45;;;;;;;;;;5100847;28;20034;-68
2022/03/29 10:51:35;;;;;;;34.42;15.35;;;;;;;;;;4998347;28;20118;-69
2022/03/29 10:54:19;;;;;;;31.80;15.70;;;;;;;;;;4998850;28;20373;-69
2022/03/29 10:56:54;;;;;;;33.63;15.73;;;;;;;;;;4998929;28;20132;-68
2022/03/29 10:59:19;;;;;;;28.08;15.30;;;;;;;;;;4997491;28;20033;-69
2022/03/29 11:01:45;;;;;;;31.37;14.77;;;;;;;;;;4998404;28;20045;-70
2022/03/29 11:04:14;;;;;;;29.05;15.57;;;;;;;;;;4997190;28;20054;-70
2022/03/29 11:06:59;;;;;;;29.45;15.30;;;;;;;;;;4999289;28;20034;-69
2022/03/29 11:09:25;;;;;;;28.30;14.90;;;;;;;;;;4998084;28;20470;-69
2022/03/29 11:11:51;;;;;;;29.13;14.97;;;;;;;;;;5017832;28;20033;-68
2022/03/29 11:14:33;;;;;;;29.23;14.77;;;;;;;;;;4998803;28;20037;-69
2022/03/29 11:17:04;;;;;;;30.30;15.73;;;;;;;;;;4998638;28;20689;-68
2022/03/29 11:19:46;;;;;;;28.08;15.30;;;;;;;;;;4998025;28;20497;-68
2022/03/29 11:22:34;;;;;;;29.25;14.55;;;;;;;;;;4996621;28;20034;-68
2022/03/29 11:25:00;;;;;;;28.00;14.77;;;;;;;;;;4997961;28;20022;-68
2022/03/29 11:27:26;;;;;;;32.28;14.82;;;;;;;;;;4999067;28;20433;-68
2022/03/29 11:29:52;;;;;;;31.23;15.80;;;;;;;;;;5096859;28;20529;-68
2022/03/29 11:32:17;;;;;;;31.27;13.30;;;;;;;;;;5101082;28;20188;-68
2022/03/29 11:34:44;;;;;;;28.00;14.80;;;;;;;;;;5102260;27;20094;-68
2022/03/29 11:37:25;;;;;;;29.80;14.00;;;;;;;;;;5103744;27;20023;-68
2022/03/29 11:39:50;;;;;;;34.30;13.80;;;;;;;;;;5097521;28;20384;-68
2022/03/29 11:42:15;;;;;;;24.67;14.03;;;;;;;;;;5099506;28;20072;-68
2022/03/29 11:44:45;;;;;;;28.67;15.33;;;;;;;;;;5095711;28;20487;-68
2022/03/29 11:47:11;;;;;;;28.77;13.27;;;;;;;;;;5095044;28;20024;-68
2022/03/29 11:49:38;;;;;;;26.63;13.10;;;;;;;;;;5097272;28;20031;-68
2022/03/29 11:52:07;;;;;;;29.53;12.83;;;;;;;;;;5096454;28;20019;-68
2022/03/29 11:54:43;;;;;;;27.33;13.40;;;;;;;;;;5090817;27;20256;-68
2022/03/29 11:57:30;;;;;;;26.43;13.20;;;;;;;;;;5096708;28;20051;-68
2022/03/29 11:59:56;;;;;;;26.70;13.27;;;;;;;;;;5091426;28;20318;-69
2022/03/29 12:02:22;;;;;;;23.63;12.10;;;;;;;;;;5097168;28;20047;-68
2022/03/29 12:04:48;;;;;;;25.95;12.60;;;;;;;;;;5097636;28;20062;-68
2022/03/29 12:07:14;;;;;;;27.02;13.45;;;;;;;;;;5096117;28;20030;-69
2022/03/29 12:09:44;;;;;;;23.73;12.32;;;;;;;;;;5092911;28;20507;-69
2022/03/29 12:12:10;;;;;;;26.30;13.00;;;;;;;;;;5096382;28;20447;-69
2022/03/29 12:14:35;;;;;;;28.50;12.38;;;;;;;;;;5097977;28;20030;-69
2022/03/29 12:17:03;;;;;;;22.38;11.90;;;;;;;;;;5098242;28;20035;-69
2022/03/29 12:19:29;;;;;;;23.02;12.68;;;;;;;;;;5097931;28;20173;-69
2022/03/29 12:21:56;;;;;;;27.98;11.98;;;;;;;;;;5096629;28;20134;-69
2022/03/29 12:24:22;;;;;;;24.25;11.40;;;;;;;;;;5097083;28;20090;-69
2022/03/29 12:26:48;;;;;;;23.30;11.32;;;;;;;;;;5096822;28;20065;-69
2022/03/29 12:29:15;;;;;;;26.10;12.18;;;;;;;;;;5097162;28;20031;-70
2022/03/29 12:31:40;;;;;;;24.88;11.45;;;;;;;;;;5097049;28;20023;-69
2022/03/29 12:34:06;;;;;;;24.17;11.93;;;;;;;;;;5097737;28;20198;-70
2022/03/29 12:36:31;;;;;;;28.60;11.73;;;;;;;;;;5099544;27;20028;-70
2022/03/29 12:39:05;;;;;;;27.63;12.38;;;;;;;;;;5098950;28;20027;-69
2022/03/29 12:41:33;;;;;;;25.08;12.07;;;;;;;;;;5097442;28;20568;-70
2022/03/29 12:43:59;;;;;;;27.02;12.52;;;;;;;;;;5096435;28;20640;-70
2022/03/29 12:46:24;;;;;;;20.17;11.50;;;;;;;;;;5099408;27;20031;-70
2022/03/29 12:48:49;;;;;;;23.55;10.50;;;;;;;;;;5078901;28;20419;-70
2022/03/29 12:51:24;;;;;;;22.90;11.43;;;;;;;;;;5097446;28;20384;-70
2022/03/29 12:53:54;;;;;;;23.63;11.52;;;;;;;;;;5096012;28;20034;-70
2022/03/29 12:56:29;;;;;;;21.88;11.10;;;;;;;;;;5096836;28;20031;-70
2022/03/29 12:58:55;;;;;;;22.65;11.80;;;;;;;;;;5079853;28;20028;-70
2022/03/29 13:01:25;;;;;;;25.55;11.13;;;;;;;;;;5106684;27;20507;-70
2022/03/29 13:03:50;;;;;;;20.25;11.15;;;;;;;;;;5098147;27;20431;-70
2022/03/29 13:06:15;;;;;;;25.10;10.52;;;;;;;;;;5097429;28;20031;-70
2022/03/29 13:08:40;;;;;;;19.33;11.02;;;;;;;;;;5097066;28;20283;-70
2022/03/29 13:11:18;;;;;;;23.45;11.50;;;;;;;;;;5094403;28;20051;-70
2022/03/29 13:14:00;;;;;;;24.63;11.10;;;;;;;;;;5096687;28;20080;-70
2022/03/29 13:16:25;;;;;;;;;;;;;;;;;;5093104;28;20503;-69
2022/03/29 13:18:51;;;;;;;22.27;10.32;;;;;;;;;;5096914;28;19915;-69
2022/03/29 13:21:21;;;;;;;22.38;10.77;;;;;;;;;;5093887;28;20470;-70
2022/03/29 13:23:48;;;;;;;24.30;10.27;;;;;;;;;;5096424;28;20027;-70
2022/03/29 13:26:20;;;;;;;20.60;9.82;;;;;;;;;;5094780;28;20028;-70
2022/03/29 13:28:47;;;;;;;22.52;10.48;;;;;;;;;;5097811;28;20437;-70
2022/03/29 13:31:15;;;;;;;21.67;9.93;;;;;;;;;;5097168;28;20035;-70
2022/03/29 13:33:42;;;;;;;21.00;9.55;;;;;;;;;;5098354;28;20034;-70
2022/03/29 13:36:09;;;;;;;25.92;9.38;;;;;;;;;;5091930;28;20472;-71
2022/03/29 13:38:35;;;;;;;24.17;9.70;;;;;;;;;;5096780;28;20031;-71
2022/03/29 13:41:01;;;;;;;23.27;8.90;;;;;;;;;;5096914;28;20337;-71
2022/03/29 13:43:26;;;;;;;20.38;8.88;;;;;;;;;;5097076;28;20503;-71
2022/03/29 13:45:51;;;;;;;21.23;9.68;;;;;;;;;;5097136;28;20535;-70
2022/03/29 13:48:16;;;;;;;22.10;9.20;;;;;;;;;;5096144;28;20023;-70
2022/03/29 13:50:42;;;;;;;17.77;8.70;;;;;;;;;;5097473;28;20024;-71
2022/03/29 13:53:08;;;;;;;23.75;9.45;;;;;;;;;;5096935;28;20560;-71
2022/03/29 13:55:34;;;;;;;22.13;8.98;;;;;;;;;;5096532;28;20027;-70
2022/03/29 13:58:04;;;;;;;16.08;8.32;;;;;;;;;;5097001;28;20111;-70
2022/03/29 14:00:30;;;;;;;17.63;8.48;;;;;;;;;;5095883;28;20084;-69
2022/03/29 14:02:55;;;;;;;21.15;8.80;;;;;;;;;;5095634;28;20027;-70
2022/03/29 14:05:21;;;;;;;21.98;9.13;;;;;;;;;;5094409;28;20175;-69
2022/03/29 14:07:46;;;;;;;21.33;9.52;;;;;;;;;;5088715;28;20074;-69
2022/03/29 14:10:16;;;;;;;23.02;9.00;;;;;;;;;;5096766;28;20048;-70
2022/03/29 14:12:41;;;;;;;23.38;9.65;;;;;;;;;;5102916;28;20034;-70
2022/03/29 14:15:08;;;;;;;25.90;9.45;;;;;;;;;;5100618;28;20227;-70
2022/03/29 14:17:33;;;;;;;22.33;8.48;;;;;;;;;;5101577;28;20698;-70
2022/03/29 14:19:58;;;;;;;21.42;9.38;;;;;;;;;;5099234;28;20034;-70
2022/03/29 14:22:24;;;;;;;19.92;7.43;;;;;;;;;;5100129;28;20036;-70
2022/03/29 14:24:49;;;;;;;24.35;9.40;;;;;;;;;;5100843;28;20032;-70
2022/03/29 14:27:15;;;;;;;25.40;9.05;;;;;;;;;;5099821;28;20116;-70